Time;durP1;ratioP1;P1;durP2;ratioP2;P2;SDS_P1;SDS_P2;PMS_P1;PMS_P2;Temp;Humidity;BMP_temperature;BMP_pressure;BME280_temperature;BME280_humidity;BME280_pressure;Samples;Min_cycle;Max_cycle;Signal;HPM_P1;HPM_P2
2023/12/14 00:01:22;;;;;;;11.30;4.25;;;;;;;;;;5091207;28;20038;-71
2023/12/14 00:03:49;;;;;;;8.63;4.47;;;;;;;;;;5091359;28;20472;-71
2023/12/14 00:06:15;;;;;;;9.25;4.50;;;;;;;;;;5091627;28;20047;-71
2023/12/14 00:08:44;;;;;;;8.45;4.40;;;;;;;;;;5092826;28;20106;-71
2023/12/14 00:11:11;;;;;;;8.20;4.15;;;;;;;;;;5091329;28;20036;-71
2023/12/14 00:13:37;;;;;;;8.18;4.10;;;;;;;;;;5091457;28;20042;-71
2023/12/14 00:16:04;;;;;;;5.28;3.83;;;;;;;;;;5091274;28;20135;-71
2023/12/14 00:18:30;;;;;;;7.80;4.47;;;;;;;;;;5091199;28;20044;-71
2023/12/14 00:20:56;;;;;;;10.00;4.53;;;;;;;;;;5091189;28;20035;-71
2023/12/14 00:23:22;;;;;;;7.68;4.03;;;;;;;;;;5090104;28;20503;-71
2023/12/14 00:25:49;;;;;;;12.23;4.22;;;;;;;;;;5090930;28;20123;-72
2023/12/14 00:28:15;;;;;;;8.82;5.47;;;;;;;;;;5090739;28;20042;-71
2023/12/14 00:30:41;;;;;;;7.85;3.75;;;;;;;;;;5091051;28;20036;-71
2023/12/14 00:33:07;;;;;;;11.05;4.10;;;;;;;;;;5091103;28;20036;-71
2023/12/14 00:35:33;;;;;;;4.78;3.13;;;;;;;;;;5074053;28;20064;-72
2023/12/14 00:37:59;;;;;;;7.28;3.10;;;;;;;;;;5091024;28;20508;-71
2023/12/14 00:40:25;;;;;;;13.85;3.30;;;;;;;;;;5090737;28;20040;-71
2023/12/14 00:42:51;;;;;;;7.97;3.83;;;;;;;;;;5090927;28;20503;-71
2023/12/14 00:45:18;;;;;;;7.63;4.03;;;;;;;;;;5090468;28;20048;-71
2023/12/14 00:47:44;;;;;;;6.50;3.80;;;;;;;;;;5073936;28;20043;-71
2023/12/14 00:50:10;;;;;;;8.32;3.88;;;;;;;;;;5090845;28;20062;-71
2023/12/14 00:52:36;;;;;;;7.60;3.95;;;;;;;;;;5087888;28;20075;-71
2023/12/14 00:55:02;;;;;;;5.05;4.05;;;;;;;;;;5090614;28;20047;-71
2023/12/14 00:57:28;;;;;;;7.63;4.25;;;;;;;;;;5090879;28;20055;-71
2023/12/14 00:59:54;;;;;;;6.68;4.30;;;;;;;;;;5090624;28;20032;-71
2023/12/14 01:02:20;;;;;;;8.00;4.18;;;;;;;;;;5091020;28;20036;-71
2023/12/14 01:04:46;;;;;;;5.55;3.40;;;;;;;;;;5090528;28;20110;-72
2023/12/14 01:07:12;;;;;;;8.38;3.70;;;;;;;;;;5090496;28;20083;-71
2023/12/14 01:09:38;;;;;;;5.45;3.50;;;;;;;;;;5090726;28;20062;-71
2023/12/14 01:12:05;;;;;;;7.78;3.75;;;;;;;;;;5090485;28;20441;-71
2023/12/14 01:14:31;;;;;;;4.93;3.55;;;;;;;;;;5090699;28;20097;-72
2023/12/14 01:16:57;;;;;;;5.65;4.18;;;;;;;;;;5090374;28;20122;-72
2023/12/14 01:19:25;;;;;;;7.30;3.75;;;;;;;;;;5090680;28;20066;-72
2023/12/14 01:21:51;;;;;;;5.35;3.90;;;;;;;;;;5090330;28;20080;-71
2023/12/14 01:24:17;;;;;;;5.05;3.55;;;;;;;;;;5090350;28;20071;-71
2023/12/14 01:26:43;;;;;;;6.75;3.55;;;;;;;;;;5089917;28;20093;-71
2023/12/14 01:29:09;;;;;;;6.55;3.90;;;;;;;;;;5073655;28;20487;-71
2023/12/14 01:31:35;;;;;;;4.78;3.70;;;;;;;;;;5090385;28;20097;-72
2023/12/14 01:34:01;;;;;;;5.15;3.42;;;;;;;;;;5075446;28;20036;-71
2023/12/14 01:36:28;;;;;;;6.50;4.32;;;;;;;;;;5094577;28;20043;-71
2023/12/14 01:38:54;;;;;;;8.90;3.90;;;;;;;;;;5094461;28;20113;-72
2023/12/14 01:41:20;;;;;;;6.18;3.88;;;;;;;;;;5094505;28;20046;-71
2023/12/14 01:43:46;;;;;;;7.60;4.05;;;;;;;;;;5077370;28;20036;-77
2023/12/14 01:46:13;;;;;;;7.30;4.13;;;;;;;;;;5094298;28;20038;-77
2023/12/14 01:48:39;;;;;;;4.93;3.28;;;;;;;;;;5094082;28;20040;-77
2023/12/14 01:51:05;;;;;;;7.40;3.85;;;;;;;;;;5094170;28;20098;-77
2023/12/14 01:53:31;;;;;;;10.65;3.80;;;;;;;;;;5093544;28;20086;-72
2023/12/14 01:55:58;;;;;;;10.88;4.78;;;;;;;;;;5093864;28;20040;-72
2023/12/14 01:58:25;;;;;;;7.15;4.22;;;;;;;;;;5093928;28;20075;-71
2023/12/14 02:01:02;;;;;;;6.97;4.45;;;;;;;;;;5094021;28;20085;-71
2023/12/14 02:03:28;;;;;;;9.75;4.55;;;;;;;;;;5094085;28;20480;-71
2023/12/14 02:05:55;;;;;;;8.55;4.57;;;;;;;;;;5094216;28;20036;-71
2023/12/14 02:08:21;;;;;;;9.13;4.32;;;;;;;;;;5093973;28;20039;-71
2023/12/14 02:10:48;;;;;;;6.93;4.28;;;;;;;;;;5093806;28;20414;-71
2023/12/14 02:13:14;;;;;;;7.53;4.45;;;;;;;;;;5093582;28;20048;-71
2023/12/14 02:15:40;;;;;;;8.65;4.40;;;;;;;;;;5093609;28;20485;-71
2023/12/14 02:18:06;;;;;;;8.40;5.45;;;;;;;;;;5093393;28;20059;-71
2023/12/14 02:20:32;;;;;;;8.98;4.40;;;;;;;;;;5092306;28;20032;-72
2023/12/14 02:22:58;;;;;;;9.32;4.47;;;;;;;;;;5093384;28;20495;-71
2023/12/14 02:25:24;;;;;;;7.63;4.97;;;;;;;;;;5093107;28;20078;-71
2023/12/14 02:27:54;;;;;;;7.85;4.65;;;;;;;;;;5092971;28;20036;-71
2023/12/14 02:30:20;;;;;;;11.25;4.80;;;;;;;;;;5093314;28;20126;-71
2023/12/14 02:32:46;;;;;;;9.02;4.97;;;;;;;;;;5093605;28;20047;-72
2023/12/14 02:35:12;;;;;;;11.45;4.82;;;;;;;;;;5076305;28;20044;-71
2023/12/14 02:37:40;;;;;;;10.88;4.75;;;;;;;;;;5093019;28;20032;-72
2023/12/14 02:40:07;;;;;;;12.52;4.90;;;;;;;;;;5093154;28;20089;-71
2023/12/14 02:42:33;;;;;;;10.60;4.72;;;;;;;;;;5076889;28;20032;-72
2023/12/14 02:45:01;;;;;;;10.13;5.18;;;;;;;;;;5092907;28;20040;-72
2023/12/14 02:47:27;;;;;;;13.95;5.30;;;;;;;;;;5094808;28;20036;-72
2023/12/14 02:49:53;;;;;;;7.15;5.30;;;;;;;;;;5093427;28;20490;-72
2023/12/14 02:52:19;;;;;;;7.15;4.65;;;;;;;;;;5091615;28;20139;-72
2023/12/14 02:54:45;;;;;;;8.77;5.25;;;;;;;;;;5092454;28;20123;-71
2023/12/14 02:57:11;;;;;;;7.30;4.93;;;;;;;;;;5092735;28;20051;-72
2023/12/14 02:59:38;;;;;;;7.85;5.30;;;;;;;;;;5092999;28;20036;-71
2023/12/14 03:02:04;;;;;;;9.55;5.43;;;;;;;;;;5092680;28;20120;-71
2023/12/14 03:04:30;;;;;;;8.20;5.28;;;;;;;;;;5092324;28;20081;-72
2023/12/14 03:06:56;;;;;;;7.55;5.43;;;;;;;;;;5092658;28;20127;-72
2023/12/14 03:09:22;;;;;;;7.65;5.10;;;;;;;;;;5092568;28;20067;-71
2023/12/14 03:11:49;;;;;;;11.75;5.53;;;;;;;;;;5092341;28;20047;-71
2023/12/14 03:14:15;;;;;;;11.15;5.15;;;;;;;;;;5092524;28;20097;-72
2023/12/14 03:16:41;;;;;;;9.20;5.00;;;;;;;;;;5092111;28;20040;-71
2023/12/14 03:19:07;;;;;;;10.70;5.60;;;;;;;;;;5092192;28;20039;-77
2023/12/14 03:21:33;;;;;;;12.05;5.30;;;;;;;;;;5075633;28;20065;-77
2023/12/14 03:23:59;;;;;;;10.10;5.18;;;;;;;;;;5092724;28;20601;-77
2023/12/14 03:26:25;;;;;;;8.02;4.50;;;;;;;;;;5072948;28;20028;-77
2023/12/14 03:28:51;;;;;;;12.10;6.10;;;;;;;;;;5092338;28;20047;-77
2023/12/14 03:31:18;;;;;;;12.70;6.20;;;;;;;;;;5092254;28;20122;-77
2023/12/14 03:33:44;;;;;;;11.48;5.55;;;;;;;;;;5092216;28;20039;-77
2023/12/14 03:36:10;;;;;;;10.35;5.47;;;;;;;;;;5091784;28;20051;-77
2023/12/14 03:38:36;;;;;;;9.18;5.63;;;;;;;;;;5092008;28;20490;-77
2023/12/14 03:41:02;;;;;;;12.18;5.95;;;;;;;;;;5092132;28;20027;-77
2023/12/14 03:43:28;;;;;;;13.63;5.72;;;;;;;;;;5092051;28;20040;-77
2023/12/14 03:45:54;;;;;;;12.73;6.05;;;;;;;;;;5091946;28;20044;-77
2023/12/14 03:48:20;;;;;;;12.77;5.53;;;;;;;;;;5091274;28;20043;-77
2023/12/14 03:50:46;;;;;;;17.55;6.57;;;;;;;;;;5075184;28;20119;-77
2023/12/14 03:53:12;;;;;;;13.45;6.15;;;;;;;;;;5091531;28;20515;-77
2023/12/14 03:55:38;;;;;;;12.07;5.70;;;;;;;;;;5091572;28;20094;-77
2023/12/14 03:58:04;;;;;;;12.00;6.05;;;;;;;;;;5090384;28;20040;-77
2023/12/14 04:00:30;;;;;;;7.65;5.05;;;;;;;;;;5092009;28;20044;-78
2023/12/14 04:02:56;;;;;;;8.48;5.93;;;;;;;;;;5092007;28;20039;-77
2023/12/14 04:05:23;;;;;;;11.63;6.43;;;;;;;;;;5073801;28;21174;-77
2023/12/14 04:07:49;;;;;;;13.43;5.90;;;;;;;;;;5090935;28;20046;-77
2023/12/14 04:10:15;;;;;;;10.73;5.88;;;;;;;;;;5091491;28;20058;-77
2023/12/14 04:12:41;;;;;;;10.88;5.75;;;;;;;;;;5091521;28;20035;-77
2023/12/14 04:15:08;;;;;;;15.82;7.15;;;;;;;;;;5091091;28;20047;-77
2023/12/14 04:17:34;;;;;;;10.18;5.25;;;;;;;;;;5089142;28;20039;-77
2023/12/14 04:20:01;;;;;;;8.70;4.78;;;;;;;;;;5091703;28;20044;-77
2023/12/14 04:22:27;;;;;;;13.60;6.15;;;;;;;;;;5091145;28;20369;-77
2023/12/14 04:24:53;;;;;;;9.07;5.53;;;;;;;;;;5088113;28;20233;-77
2023/12/14 04:27:20;;;;;;;10.65;5.82;;;;;;;;;;5091165;28;20040;-77
2023/12/14 04:29:46;;;;;;;12.40;5.15;;;;;;;;;;5091222;28;20043;-77
2023/12/14 04:32:12;;;;;;;12.32;6.18;;;;;;;;;;5090891;28;20494;-77
2023/12/14 04:34:38;;;;;;;10.82;5.88;;;;;;;;;;5073278;28;20108;-77
2023/12/14 04:37:04;;;;;;;11.50;5.55;;;;;;;;;;5074642;28;20039;-77
2023/12/14 04:39:30;;;;;;;14.70;6.90;;;;;;;;;;5091281;28;20129;-77
2023/12/14 04:41:56;;;;;;;15.98;6.38;;;;;;;;;;5091100;28;20036;-77
2023/12/14 04:44:23;;;;;;;11.05;5.97;;;;;;;;;;5091017;28;20078;-77
2023/12/14 04:46:49;;;;;;;11.95;5.70;;;;;;;;;;5091146;28;20036;-77
2023/12/14 04:49:15;;;;;;;16.08;6.10;;;;;;;;;;5090701;28;20036;-77
2023/12/14 04:51:41;;;;;;;10.70;6.15;;;;;;;;;;5090685;28;20040;-76
2023/12/14 04:54:07;;;;;;;13.30;5.95;;;;;;;;;;5073802;28;20086;-77
2023/12/14 04:56:33;;;;;;;13.65;5.95;;;;;;;;;;5090484;28;20484;-77
2023/12/14 04:59:00;;;;;;;11.38;5.82;;;;;;;;;;5091044;28;20369;-77
2023/12/14 05:01:28;;;;;;;15.52;6.20;;;;;;;;;;5090771;28;20127;-77
2023/12/14 05:03:55;;;;;;;13.43;6.32;;;;;;;;;;5090513;28;20182;-77
2023/12/14 05:06:21;;;;;;;14.73;5.40;;;;;;;;;;5090583;28;20031;-77
2023/12/14 05:08:47;;;;;;;15.02;6.32;;;;;;;;;;5090508;28;20112;-77
2023/12/14 05:11:14;;;;;;;13.52;5.93;;;;;;;;;;5074041;28;20044;-77
2023/12/14 05:13:40;;;;;;;12.23;6.05;;;;;;;;;;5090734;28;20051;-72
2023/12/14 05:16:07;;;;;;;13.38;6.05;;;;;;;;;;5090461;28;20036;-72
2023/12/14 05:18:33;;;;;;;12.93;6.28;;;;;;;;;;5090582;28;20039;-72
2023/12/14 05:21:00;;;;;;;11.70;6.15;;;;;;;;;;5090544;28;20035;-71
2023/12/14 05:23:26;;;;;;;9.18;5.28;;;;;;;;;;5090493;28;20044;-72
2023/12/14 05:25:52;;;;;;;11.57;6.10;;;;;;;;;;5090343;28;20055;-72
2023/12/14 05:28:18;;;;;;;10.80;5.75;;;;;;;;;;5090185;28;20480;-72
2023/12/14 05:30:44;;;;;;;13.25;6.00;;;;;;;;;;5090160;28;20040;-72
2023/12/14 05:33:10;;;;;;;8.45;5.40;;;;;;;;;;5090446;28;20036;-72
2023/12/14 05:35:36;;;;;;;9.90;5.53;;;;;;;;;;5073559;28;20484;-72
2023/12/14 05:38:02;;;;;;;12.45;6.45;;;;;;;;;;5090666;28;20039;-72
2023/12/14 05:40:28;;;;;;;13.13;5.97;;;;;;;;;;5090110;28;20032;-72
2023/12/14 05:42:55;;;;;;;11.32;6.30;;;;;;;;;;5090241;28;20040;-72
2023/12/14 05:45:21;;;;;;;9.75;5.97;;;;;;;;;;5086703;28;20033;-72
2023/12/14 05:47:47;;;;;;;10.80;5.63;;;;;;;;;;5090234;28;20036;-72
2023/12/14 05:50:13;;;;;;;12.10;6.20;;;;;;;;;;5090367;28;20043;-72
2023/12/14 05:52:40;;;;;;;11.00;6.10;;;;;;;;;;5090194;28;20052;-72
2023/12/14 05:55:10;;;;;;;11.13;5.97;;;;;;;;;;5090164;28;20381;-72
2023/12/14 05:57:36;;;;;;;10.82;5.32;;;;;;;;;;5106702;28;20089;-72
2023/12/14 06:00:04;;;;;;;12.55;5.47;;;;;;;;;;5073545;28;20036;-72
2023/12/14 06:02:31;;;;;;;10.60;5.97;;;;;;;;;;5073177;28;20484;-72
2023/12/14 06:04:57;;;;;;;12.82;6.03;;;;;;;;;;5091402;28;20044;-72
2023/12/14 06:07:24;;;;;;;11.65;5.70;;;;;;;;;;5090072;28;20460;-72
2023/12/14 06:09:50;;;;;;;14.13;6.43;;;;;;;;;;5090089;28;20043;-71
2023/12/14 06:12:16;;;;;;;13.85;5.82;;;;;;;;;;5089821;28;20173;-72
2023/12/14 06:14:44;;;;;;;8.63;5.97;;;;;;;;;;5089901;28;20115;-72
2023/12/14 06:17:10;;;;;;;17.95;6.03;;;;;;;;;;5090186;28;20475;-72
2023/12/14 06:19:36;;;;;;;10.68;6.35;;;;;;;;;;5090230;28;20115;-72
2023/12/14 06:22:02;;;;;;;9.70;5.75;;;;;;;;;;5075890;28;20028;-72
2023/12/14 06:24:29;;;;;;;12.13;5.90;;;;;;;;;;5093818;28;20040;-72
2023/12/14 06:26:55;;;;;;;11.73;6.13;;;;;;;;;;5093289;28;20468;-72
2023/12/14 06:29:21;;;;;;;12.25;5.65;;;;;;;;;;5093433;28;20086;-72
2023/12/14 06:31:47;;;;;;;14.05;6.90;;;;;;;;;;5094581;28;20101;-72
2023/12/14 06:34:13;;;;;;;13.68;5.57;;;;;;;;;;5094355;28;20040;-72
2023/12/14 06:36:42;;;;;;;14.43;6.22;;;;;;;;;;5094753;28;20040;-72
2023/12/14 06:39:08;;;;;;;11.18;6.05;;;;;;;;;;5093296;28;20050;-72
2023/12/14 06:41:34;;;;;;;10.57;5.63;;;;;;;;;;5093445;28;20089;-71
2023/12/14 06:44:00;;;;;;;9.98;5.88;;;;;;;;;;5093092;28;20092;-72
2023/12/14 06:46:27;;;;;;;14.55;6.55;;;;;;;;;;5093434;28;20108;-72
2023/12/14 06:48:53;;;;;;;16.02;6.38;;;;;;;;;;5092603;28;20048;-72
2023/12/14 06:51:20;;;;;;;9.15;6.05;;;;;;;;;;5076136;28;20090;-71
2023/12/14 06:53:47;;;;;;;13.57;5.78;;;;;;;;;;5092285;28;20412;-72
2023/12/14 06:56:13;;;;;;;14.32;6.53;;;;;;;;;;5075784;28;20071;-71
2023/12/14 06:58:40;;;;;;;8.98;5.72;;;;;;;;;;5092681;28;20156;-72
2023/12/14 07:01:07;;;;;;;13.73;6.00;;;;;;;;;;5090616;28;20479;-72
2023/12/14 07:03:34;;;;;;;10.18;5.50;;;;;;;;;;5093911;28;20036;-72
2023/12/14 07:06:00;;;;;;;14.20;6.05;;;;;;;;;;5093558;28;20036;-72
2023/12/14 07:08:26;;;;;;;15.07;6.22;;;;;;;;;;5092665;28;20502;-72
2023/12/14 07:10:52;;;;;;;12.27;6.32;;;;;;;;;;5093521;28;20536;-72
2023/12/14 07:13:21;;;;;;;9.65;5.65;;;;;;;;;;5093562;28;20496;-72
2023/12/14 07:15:47;;;;;;;11.52;5.95;;;;;;;;;;5093319;28;20044;-72
2023/12/14 07:18:13;;;;;;;11.27;5.75;;;;;;;;;;5092887;28;20040;-72
2023/12/14 07:20:39;;;;;;;7.82;5.15;;;;;;;;;;5092439;28;20032;-71
2023/12/14 07:23:05;;;;;;;13.25;6.03;;;;;;;;;;5092635;28;20124;-72
2023/12/14 07:25:31;;;;;;;10.85;6.07;;;;;;;;;;5093134;28;20047;-71
2023/12/14 07:27:57;;;;;;;13.95;5.88;;;;;;;;;;5076119;28;20040;-71
2023/12/14 07:30:23;;;;;;;12.10;6.45;;;;;;;;;;5075977;28;20071;-71
2023/12/14 07:32:51;;;;;;;16.08;6.70;;;;;;;;;;5092932;28;20149;-71
2023/12/14 07:35:17;;;;;;;15.40;6.30;;;;;;;;;;5076205;28;20052;-71
2023/12/14 07:37:45;;;;;;;17.20;6.43;;;;;;;;;;5092534;28;20035;-71
2023/12/14 07:40:11;;;;;;;15.82;7.10;;;;;;;;;;5093410;28;20074;-71
2023/12/14 07:42:38;;;;;;;15.70;6.82;;;;;;;;;;5075556;28;20097;-71
2023/12/14 07:45:05;;;;;;;9.75;5.78;;;;;;;;;;5075882;28;20058;-71
2023/12/14 07:47:31;;;;;;;10.45;5.90;;;;;;;;;;5092187;28;20089;-71
2023/12/14 07:49:57;;;;;;;10.55;6.22;;;;;;;;;;5092062;28;20032;-71
2023/12/14 07:52:23;;;;;;;9.60;6.18;;;;;;;;;;5091852;28;20519;-71
2023/12/14 07:54:49;;;;;;;15.45;6.05;;;;;;;;;;5093395;28;20048;-71
2023/12/14 07:57:15;;;;;;;13.45;6.82;;;;;;;;;;5090233;28;20050;-71
2023/12/14 07:59:41;;;;;;;11.23;6.75;;;;;;;;;;5075321;28;20047;-71
2023/12/14 08:02:07;;;;;;;8.85;5.50;;;;;;;;;;5091936;28;20036;-71
2023/12/14 08:04:33;;;;;;;14.27;6.35;;;;;;;;;;5093072;28;20052;-71
2023/12/14 08:06:59;;;;;;;14.13;6.95;;;;;;;;;;5091393;28;20040;-71
2023/12/14 08:09:25;;;;;;;9.40;6.38;;;;;;;;;;5090148;28;20048;-78
2023/12/14 08:11:52;;;;;;;13.27;6.70;;;;;;;;;;5074431;28;20040;-72
2023/12/14 08:14:18;;;;;;;12.95;6.13;;;;;;;;;;5091782;28;20052;-72
2023/12/14 08:16:44;;;;;;;17.10;6.97;;;;;;;;;;5092473;28;20127;-72
2023/12/14 08:19:10;;;;;;;10.48;6.22;;;;;;;;;;5092082;28;20488;-72
2023/12/14 08:21:36;;;;;;;20.05;7.20;;;;;;;;;;5092341;28;20046;-72
2023/12/14 08:24:03;;;;;;;12.68;6.97;;;;;;;;;;5090761;28;20488;-72
2023/12/14 08:26:29;;;;;;;17.67;6.72;;;;;;;;;;5090982;28;20032;-72
2023/12/14 08:28:55;;;;;;;14.00;6.50;;;;;;;;;;5092113;28;20512;-72
2023/12/14 08:31:21;;;;;;;11.55;6.20;;;;;;;;;;5091839;28;20036;-72
2023/12/14 08:33:47;;;;;;;11.77;6.50;;;;;;;;;;5092716;28;20040;-71
2023/12/14 08:36:16;;;;;;;10.77;6.25;;;;;;;;;;5074611;28;20040;-72
2023/12/14 08:38:42;;;;;;;10.63;6.57;;;;;;;;;;5091761;28;20076;-72
2023/12/14 08:41:08;;;;;;;11.52;5.88;;;;;;;;;;5088333;28;20047;-72
2023/12/14 08:43:34;;;;;;;14.90;6.85;;;;;;;;;;5090831;28;20036;-72
2023/12/14 08:46:00;;;;;;;12.05;6.68;;;;;;;;;;5091521;28;20416;-72
2023/12/14 08:48:27;;;;;;;15.07;7.00;;;;;;;;;;5090871;28;20057;-72
2023/12/14 08:50:55;;;;;;;14.18;6.45;;;;;;;;;;5089764;28;20039;-73
2023/12/14 08:53:21;;;;;;;11.30;6.43;;;;;;;;;;5091537;28;20056;-73
2023/12/14 08:55:47;;;;;;;15.10;8.23;;;;;;;;;;5091785;28;20104;-72
2023/12/14 08:58:13;;;;;;;17.25;7.60;;;;;;;;;;5091543;28;20051;-73
2023/12/14 09:00:40;;;;;;;11.52;6.57;;;;;;;;;;5091711;28;20047;-74
2023/12/14 09:03:06;;;;;;;10.68;6.85;;;;;;;;;;5091936;28;20088;-74
2023/12/14 09:05:32;;;;;;;12.77;6.80;;;;;;;;;;5091548;28;20040;-74
2023/12/14 09:07:59;;;;;;;13.07;6.57;;;;;;;;;;5091872;28;20514;-73
2023/12/14 09:10:25;;;;;;;11.27;6.70;;;;;;;;;;5098092;28;20047;-80
2023/12/14 09:12:51;;;;;;;12.23;6.47;;;;;;;;;;5102143;28;20048;-80
2023/12/14 09:15:18;;;;;;;14.32;6.47;;;;;;;;;;5075437;28;20153;-80
2023/12/14 09:17:44;;;;;;;10.93;6.45;;;;;;;;;;5092396;28;20044;-80
2023/12/14 09:20:11;;;;;;;13.20;6.07;;;;;;;;;;5075188;28;20040;-80
2023/12/14 09:22:37;;;;;;;11.30;6.25;;;;;;;;;;5092356;28;20051;-79
2023/12/14 09:25:03;;;;;;;11.90;6.45;;;;;;;;;;5100536;28;20387;-79
2023/12/14 09:27:30;;;;;;;12.45;6.95;;;;;;;;;;5112703;28;20048;-79
2023/12/14 09:29:56;;;;;;;12.98;6.63;;;;;;;;;;5094987;28;20036;-79
2023/12/14 09:32:22;;;;;;;13.52;7.32;;;;;;;;;;5112434;28;20040;-79
2023/12/14 09:34:48;;;;;;;12.93;7.38;;;;;;;;;;5112163;28;20391;-79
2023/12/14 09:37:14;;;;;;;15.43;8.13;;;;;;;;;;5112490;28;20472;-79
2023/12/14 09:39:41;;;;;;;14.80;8.15;;;;;;;;;;5111988;28;20486;-79
2023/12/14 09:42:08;;;;;;;19.42;7.93;;;;;;;;;;5116704;28;20100;-79
2023/12/14 09:44:35;;;;;;;11.25;6.75;;;;;;;;;;5113461;28;20044;-79
2023/12/14 09:47:02;;;;;;;16.13;7.20;;;;;;;;;;5095218;28;20506;-78
2023/12/14 09:49:29;;;;;;;11.02;6.72;;;;;;;;;;5104840;28;20105;-79
2023/12/14 09:51:58;;;;;;;14.25;6.80;;;;;;;;;;5091450;28;20044;-79
2023/12/14 09:54:28;;;;;;;14.13;7.28;;;;;;;;;;5092457;28;20060;-79
2023/12/14 09:56:54;;;;;;;14.30;7.32;;;;;;;;;;5096419;28;20125;-79
2023/12/14 09:59:21;;;;;;;14.52;6.82;;;;;;;;;;5078195;28;20040;-79
2023/12/14 10:01:47;;;;;;;10.18;6.80;;;;;;;;;;5102252;28;20046;-80
2023/12/14 10:04:15;;;;;;;16.85;7.50;;;;;;;;;;5110737;28;20488;-78
2023/12/14 10:06:42;;;;;;;16.30;6.95;;;;;;;;;;5094496;28;20035;-81
2023/12/14 10:09:18;;;;;;;13.73;6.90;;;;;;;;;;5093689;28;20166;-81
2023/12/14 10:11:45;;;;;;;10.38;6.43;;;;;;;;;;5095148;28;20044;-81
2023/12/14 10:14:20;;;;;;;11.45;6.82;;;;;;;;;;5093857;28;20035;-81
2023/12/14 10:16:47;;;;;;;15.77;7.55;;;;;;;;;;5110419;28;20032;-80
2023/12/14 10:19:13;;;;;;;16.20;7.40;;;;;;;;;;5097349;28;20044;-80
2023/12/14 10:21:40;;;;;;;15.23;6.88;;;;;;;;;;5110853;28;20087;-80
2023/12/14 10:24:07;;;;;;;13.27;7.20;;;;;;;;;;5093693;28;20036;-80
2023/12/14 10:26:33;;;;;;;14.00;7.25;;;;;;;;;;5095540;28;20040;-80
2023/12/14 10:28:59;;;;;;;10.15;6.30;;;;;;;;;;5076753;28;20036;-80
2023/12/14 10:31:26;;;;;;;13.27;6.28;;;;;;;;;;5093087;28;20039;-80
2023/12/14 10:33:52;;;;;;;11.75;6.18;;;;;;;;;;5097435;28;20051;-79
2023/12/14 10:36:24;;;;;;;12.23;6.53;;;;;;;;;;5077858;28;20043;-79
2023/12/14 10:38:52;;;;;;;14.33;6.87;;;;;;;;;;5094294;28;20056;-80
2023/12/14 10:41:19;;;;;;;9.60;5.85;;;;;;;;;;5085854;28;20051;-80
2023/12/14 10:43:46;;;;;;;17.77;7.03;;;;;;;;;;5076732;28;20031;-80
2023/12/14 10:46:14;;;;;;;10.90;7.05;;;;;;;;;;5093109;28;20211;-79
2023/12/14 10:48:44;;;;;;;12.00;6.75;;;;;;;;;;5089906;28;20104;-80
2023/12/14 10:51:11;;;;;;;11.40;6.20;;;;;;;;;;5093393;28;20051;-80
2023/12/14 10:53:38;;;;;;;9.50;6.40;;;;;;;;;;5076184;28;20048;-79
2023/12/14 10:56:09;;;;;;;9.85;6.47;;;;;;;;;;5076225;28;20096;-79
2023/12/14 10:58:46;;;;;;;9.68;5.78;;;;;;;;;;5092831;28;20040;-79
2023/12/14 11:01:20;;;;;;;10.52;6.53;;;;;;;;;;5093236;28;20043;-79
2023/12/14 11:03:47;;;;;;;11.75;5.97;;;;;;;;;;5109124;28;20028;-79
2023/12/14 11:06:31;;;;;;;12.35;6.43;;;;;;;;;;5093189;28;20046;-79
2023/12/14 11:08:58;;;;;;;10.70;6.15;;;;;;;;;;5097176;28;20385;-79
2023/12/14 11:11:28;;;;;;;15.82;6.68;;;;;;;;;;5091668;28;20156;-79
2023/12/14 11:13:54;;;;;;;12.50;6.32;;;;;;;;;;5091072;28;20040;-79
2023/12/14 11:16:23;;;;;;;8.65;5.95;;;;;;;;;;5074616;28;20488;-79
2023/12/14 11:19:09;;;;;;;11.55;7.10;;;;;;;;;;5091637;28;20043;-79
2023/12/14 11:21:35;;;;;;;13.70;6.72;;;;;;;;;;5089816;28;20043;-75
2023/12/14 11:24:02;;;;;;;9.57;6.50;;;;;;;;;;5092081;28;20125;-73
2023/12/14 11:26:28;;;;;;;15.27;6.20;;;;;;;;;;5091479;28;20046;-73
2023/12/14 11:28:54;;;;;;;11.07;6.53;;;;;;;;;;5092022;28;20048;-73
2023/12/14 11:31:22;;;;;;;11.00;6.00;;;;;;;;;;5073950;28;20093;-73
2023/12/14 11:33:49;;;;;;;12.20;6.13;;;;;;;;;;5069059;28;20063;-73
2023/12/14 11:36:15;;;;;;;11.43;6.28;;;;;;;;;;5091479;28;20097;-74
2023/12/14 11:38:42;;;;;;;9.02;5.95;;;;;;;;;;5091736;28;20046;-73
2023/12/14 11:41:08;;;;;;;14.50;6.90;;;;;;;;;;5092304;28;20071;-73
2023/12/14 11:43:41;;;;;;;13.68;6.72;;;;;;;;;;5091986;28;20165;-73
2023/12/14 11:46:08;;;;;;;14.02;6.85;;;;;;;;;;5093495;28;20047;-73
2023/12/14 11:48:34;;;;;;;12.85;6.53;;;;;;;;;;5093173;28;20055;-73
2023/12/14 11:51:00;;;;;;;12.15;6.43;;;;;;;;;;5092772;28;20500;-72
2023/12/14 11:53:26;;;;;;;11.55;6.50;;;;;;;;;;5076186;28;20056;-72
2023/12/14 11:55:53;;;;;;;11.45;7.35;;;;;;;;;;5092736;28;20143;-72
2023/12/14 11:58:19;;;;;;;13.57;7.28;;;;;;;;;;5093158;28;20031;-73
2023/12/14 12:00:47;;;;;;;16.08;6.75;;;;;;;;;;5093882;28;20576;-73
2023/12/14 12:03:14;;;;;;;14.50;7.05;;;;;;;;;;5095069;28;20051;-72
2023/12/14 12:05:42;;;;;;;13.20;7.68;;;;;;;;;;5093095;28;20401;-73
2023/12/14 12:08:08;;;;;;;10.75;7.03;;;;;;;;;;5103686;28;20071;-73
2023/12/14 12:10:35;;;;;;;14.38;7.25;;;;;;;;;;5112822;28;20124;-73
2023/12/14 12:13:05;;;;;;;10.05;6.40;;;;;;;;;;5107316;28;20044;-79
2023/12/14 12:15:32;;;;;;;11.60;6.57;;;;;;;;;;5098411;28;20044;-79
2023/12/14 12:17:58;;;;;;;14.48;6.53;;;;;;;;;;5104782;28;20032;-78
2023/12/14 12:20:25;;;;;;;9.45;6.53;;;;;;;;;;5105314;28;20040;-78
2023/12/14 12:22:51;;;;;;;11.48;6.30;;;;;;;;;;5113636;28;20036;-78
2023/12/14 12:25:18;;;;;;;10.52;6.38;;;;;;;;;;5118979;28;20523;-80
2023/12/14 12:27:44;;;;;;;13.65;6.57;;;;;;;;;;5113690;28;20145;-79
2023/12/14 12:30:10;;;;;;;11.13;6.63;;;;;;;;;;5112373;28;20488;-78
2023/12/14 12:32:36;;;;;;;8.77;6.25;;;;;;;;;;5112462;28;20466;-73
2023/12/14 12:35:03;;;;;;;10.65;6.00;;;;;;;;;;5097141;28;20040;-78
2023/12/14 12:37:29;;;;;;;11.55;6.10;;;;;;;;;;5092594;28;20044;-79
2023/12/14 12:39:55;;;;;;;11.13;6.05;;;;;;;;;;5092439;28;20555;-79
2023/12/14 12:42:22;;;;;;;11.52;6.18;;;;;;;;;;5059410;28;20047;-79
2023/12/14 12:44:48;;;;;;;9.77;6.07;;;;;;;;;;5092362;28;20157;-79
2023/12/14 12:47:15;;;;;;;9.85;6.20;;;;;;;;;;5092087;28;20056;-78
2023/12/14 12:49:41;;;;;;;9.80;5.70;;;;;;;;;;5075410;28;20040;-78
2023/12/14 12:52:07;;;;;;;13.02;6.70;;;;;;;;;;5075464;28;20054;-79
2023/12/14 12:54:33;;;;;;;11.77;6.32;;;;;;;;;;5075102;28;20564;-79
2023/12/14 12:56:59;;;;;;;8.88;5.38;;;;;;;;;;5092339;28;20046;-78
2023/12/14 12:59:25;;;;;;;11.60;5.90;;;;;;;;;;5075269;28;20123;-79
2023/12/14 13:01:51;;;;;;;7.93;5.30;;;;;;;;;;5092602;28;20085;-78
2023/12/14 13:04:21;;;;;;;12.52;5.90;;;;;;;;;;5082544;28;20082;-79
2023/12/14 13:06:48;;;;;;;9.77;5.57;;;;;;;;;;5112392;28;20039;-79
2023/12/14 13:09:18;;;;;;;15.55;6.32;;;;;;;;;;5108141;28;20040;-78
2023/12/14 13:11:45;;;;;;;11.60;6.35;;;;;;;;;;5091858;28;20524;-79
2023/12/14 13:14:11;;;;;;;9.82;6.22;;;;;;;;;;5095737;28;20036;-79
2023/12/14 13:16:38;;;;;;;7.68;5.47;;;;;;;;;;5112330;28;20067;-79
2023/12/14 13:19:06;;;;;;;8.77;5.53;;;;;;;;;;5103393;28;20115;-79
2023/12/14 13:21:36;;;;;;;10.88;5.65;;;;;;;;;;5124129;28;20047;-79
2023/12/14 13:24:02;;;;;;;10.32;6.07;;;;;;;;;;5123808;28;20122;-79
2023/12/14 13:26:28;;;;;;;9.68;5.78;;;;;;;;;;5104486;28;20085;-79
2023/12/14 13:28:55;;;;;;;10.82;6.18;;;;;;;;;;5091700;28;20048;-78
2023/12/14 13:31:21;;;;;;;10.20;6.38;;;;;;;;;;5079094;28;20044;-79
2023/12/14 13:33:48;;;;;;;10.02;5.80;;;;;;;;;;5095428;28;20505;-79
2023/12/14 13:36:15;;;;;;;10.50;5.80;;;;;;;;;;5095815;28;20078;-79
2023/12/14 13:38:41;;;;;;;12.38;5.63;;;;;;;;;;5078890;28;20082;-79
2023/12/14 13:41:08;;;;;;;7.72;5.25;;;;;;;;;;5095934;28;20397;-79
2023/12/14 13:43:34;;;;;;;10.40;5.68;;;;;;;;;;5096127;28;20047;-79
2023/12/14 13:46:00;;;;;;;10.60;6.25;;;;;;;;;;5078734;28;20054;-73
2023/12/14 13:48:27;;;;;;;10.95;6.03;;;;;;;;;;5095006;28;20036;-73
2023/12/14 13:50:56;;;;;;;15.25;5.75;;;;;;;;;;5095254;28;20048;-73
2023/12/14 13:53:23;;;;;;;12.25;6.05;;;;;;;;;;5095011;28;20504;-73
2023/12/14 13:55:49;;;;;;;9.65;5.65;;;;;;;;;;5109942;28;20507;-73
2023/12/14 13:58:16;;;;;;;9.63;5.90;;;;;;;;;;5109385;28;20075;-75
2023/12/14 14:00:42;;;;;;;10.57;6.32;;;;;;;;;;5077908;28;20047;-72
2023/12/14 14:03:08;;;;;;;13.45;6.28;;;;;;;;;;5094385;28;20038;-74
2023/12/14 14:05:34;;;;;;;13.10;6.30;;;;;;;;;;5088677;28;20054;-74
2023/12/14 14:08:01;;;;;;;10.07;5.82;;;;;;;;;;5079468;28;20043;-74
2023/12/14 14:10:27;;;;;;;10.38;6.35;;;;;;;;;;5095667;28;20558;-74
2023/12/14 14:12:53;;;;;;;10.10;5.72;;;;;;;;;;5102833;28;20110;-74
2023/12/14 14:15:21;;;;;;;9.82;6.07;;;;;;;;;;5094199;28;20059;-74
2023/12/14 14:17:51;;;;;;;8.75;5.70;;;;;;;;;;5094624;28;20039;-74
2023/12/14 14:20:18;;;;;;;9.93;6.10;;;;;;;;;;5110813;28;20102;-74
2023/12/14 14:22:44;;;;;;;12.23;6.32;;;;;;;;;;5094158;28;20046;-74
2023/12/14 14:25:10;;;;;;;7.78;5.70;;;;;;;;;;5094439;28;20400;-74
2023/12/14 14:27:37;;;;;;;8.95;6.10;;;;;;;;;;5095372;28;20036;-74
2023/12/14 14:30:04;;;;;;;10.52;6.15;;;;;;;;;;5093967;28;20036;-74